Time;durP1;ratioP1;P1;durP2;ratioP2;P2;SDS_P1;SDS_P2;PMS_P1;PMS_P2;Temp;Humidity;BMP_temperature;BMP_pressure;BME280_temperature;BME280_humidity;BME280_pressure;Samples;Min_cycle;Max_cycle;Signal;HPM_P1;HPM_P2
2022/04/30 00:00:04;;;;;;;13.77;10.33;;;;;;;;;;5037703;28;20433;-78
2022/04/30 00:02:31;;;;;;;16.73;9.20;;;;;;;;;;5039111;28;20457;-78
2022/04/30 00:05:00;;;;;;;13.57;10.67;;;;;;;;;;5051408;28;20939;-78
2022/04/30 00:07:30;;;;;;;17.00;11.43;;;;;;;;;;5051788;28;20444;-78
2022/04/30 00:09:57;;;;;;;13.10;10.03;;;;;;;;;;5052103;28;20445;-77
2022/04/30 00:12:25;;;;;;;14.00;8.97;;;;;;;;;;5052238;28;20467;-79
2022/04/30 00:14:55;;;;;;;10.23;9.10;;;;;;;;;;5046763;28;20552;-78
2022/04/30 00:17:22;;;;;;;9.50;8.20;;;;;;;;;;5034028;28;20563;-78
2022/04/30 00:19:49;;;;;;;10.43;8.57;;;;;;;;;;5016768;28;20438;-77
2022/04/30 00:22:16;;;;;;;9.73;8.73;;;;;;;;;;5037318;28;20969;-77
2022/04/30 00:24:45;;;;;;;9.47;8.10;;;;;;;;;;5038511;28;20437;-77
2022/04/30 00:27:14;;;;;;;9.80;8.40;;;;;;;;;;5050870;28;20457;-77
2022/04/30 00:29:41;;;;;;;8.77;7.53;;;;;;;;;;5051154;28;20488;-77
2022/04/30 00:32:10;;;;;;;8.37;7.53;;;;;;;;;;5051244;28;20479;-77
2022/04/30 00:34:37;;;;;;;9.90;8.10;;;;;;;;;;5052150;28;20433;-77
2022/04/30 00:37:04;;;;;;;15.70;8.70;;;;;;;;;;5046044;28;20486;-78
2022/04/30 00:39:32;;;;;;;11.20;8.70;;;;;;;;;;5033605;28;20809;-77
2022/04/30 00:41:59;;;;;;;8.67;7.87;;;;;;;;;;5033430;28;20476;-77
2022/04/30 00:44:27;;;;;;;10.90;8.07;;;;;;;;;;5036904;28;20438;-77
2022/04/30 00:46:55;;;;;;;7.30;6.60;;;;;;;;;;5037413;28;20465;-77
2022/04/30 00:49:23;;;;;;;10.10;7.87;;;;;;;;;;5050741;28;20447;-77
2022/04/30 00:51:51;;;;;;;11.50;7.90;;;;;;;;;;5051032;28;20457;-78
2022/04/30 00:54:20;;;;;;;11.93;8.50;;;;;;;;;;5051294;28;20449;-77
2022/04/30 00:56:49;;;;;;;9.60;6.90;;;;;;;;;;5051472;28;21064;-78
2022/04/30 00:59:18;;;;;;;8.07;7.27;;;;;;;;;;5029800;28;20461;-77
2022/04/30 01:01:46;;;;;;;11.53;7.87;;;;;;;;;;5033353;28;20466;-77
2022/04/30 01:04:13;;;;;;;9.97;7.90;;;;;;;;;;5033812;28;20438;-78
2022/04/30 01:06:50;;;;;;;9.47;7.47;;;;;;;;;;5036712;28;20433;-77
2022/04/30 01:09:20;;;;;;;11.00;8.20;;;;;;;;;;5019625;28;20444;-77
2022/04/30 01:11:48;;;;;;;10.20;8.03;;;;;;;;;;5030381;28;20450;-78
2022/04/30 01:14:16;;;;;;;8.93;7.60;;;;;;;;;;5030884;28;20853;-77
2022/04/30 01:16:44;;;;;;;11.03;7.30;;;;;;;;;;5031243;28;20490;-77
2022/04/30 01:19:11;;;;;;;9.20;7.23;;;;;;;;;;5031574;28;20801;-77
2022/04/30 01:21:38;;;;;;;9.67;7.37;;;;;;;;;;5013430;28;20478;-77
2022/04/30 01:24:08;;;;;;;8.90;7.93;;;;;;;;;;5033586;28;20448;-77
2022/04/30 01:26:35;;;;;;;8.13;7.33;;;;;;;;;;5033292;28;20799;-78
2022/04/30 01:29:02;;;;;;;10.93;8.20;;;;;;;;;;5036357;28;20965;-78
2022/04/30 01:39:34;;;;;;;11.70;8.73;;;;;;;;;;5050138;28;20433;-77
2022/04/30 01:42:11;;;;;;;9.50;7.97;;;;;;;;;;5051025;28;21008;-78
2022/04/30 01:44:38;;;;;;;10.93;9.77;;;;;;;;;;5040952;28;20552;-78
2022/04/30 01:47:06;;;;;;;11.60;7.57;;;;;;;;;;5033081;28;20442;-78
2022/04/30 01:49:33;;;;;;;11.17;7.63;;;;;;;;;;5036979;28;20915;-78
2022/04/30 01:52:02;;;;;;;8.30;7.47;;;;;;;;;;5040179;28;20453;-77
2022/04/30 01:54:32;;;;;;;9.43;8.30;;;;;;;;;;5044599;28;20806;-76
2022/04/30 01:57:00;;;;;;;10.60;8.20;;;;;;;;;;5054340;28;20484;-78
2022/04/30 01:59:44;;;;;;;15.43;9.20;;;;;;;;;;5054188;28;20437;-78
2022/04/30 02:02:12;;;;;;;10.87;8.33;;;;;;;;;;5054295;28;20456;-78
2022/04/30 02:04:41;;;;;;;13.13;9.10;;;;;;;;;;5054686;28;20933;-78
2022/04/30 02:07:13;;;;;;;10.30;9.17;;;;;;;;;;5041808;28;20981;-78
2022/04/30 02:09:40;;;;;;;10.20;9.17;;;;;;;;;;5036376;28;20453;-76
2022/04/30 02:12:12;;;;;;;10.40;8.93;;;;;;;;;;5037567;28;20458;-77
2022/04/30 02:14:40;;;;;;;13.70;9.90;;;;;;;;;;5040196;28;20429;-78
2022/04/30 02:17:07;;;;;;;11.50;8.70;;;;;;;;;;5045843;28;20817;-77
2022/04/30 02:20:18;;;;;;;13.30;9.70;;;;;;;;;;5036396;28;20452;-78
2022/04/30 02:22:23;;;;;;;12.20;9.17;;;;;;;;;;5038717;28;20815;-76
2022/04/30 02:24:50;;;;;;;13.50;9.85;;;;;;;;;;5036540;28;20441;-78
2022/04/30 02:27:19;;;;;;;14.37;9.00;;;;;;;;;;5054404;28;20203;-78
2022/04/30 02:29:46;;;;;;;9.30;7.80;;;;;;;;;;5022243;28;20457;-77
2022/04/30 02:32:13;;;;;;;10.70;8.73;;;;;;;;;;5035716;28;20465;-78
2022/04/30 02:34:40;;;;;;;11.80;9.10;;;;;;;;;;5037340;28;20484;-78
2022/04/30 02:37:13;;;;;;;13.70;9.50;;;;;;;;;;5039610;28;20484;-77
2022/04/30 02:39:40;;;;;;;15.30;9.80;;;;;;;;;;5036226;28;20496;-77
2022/04/30 02:42:08;;;;;;;12.93;8.70;;;;;;;;;;5033617;28;20466;-77
2022/04/30 02:44:36;;;;;;;12.10;8.40;;;;;;;;;;5033399;28;20442;-79
2022/04/30 02:47:04;;;;;;;10.23;8.83;;;;;;;;;;5033431;28;20442;-78
2022/04/30 02:49:32;;;;;;;11.30;9.20;;;;;;;;;;5034116;28;20446;-78
2022/04/30 02:52:00;;;;;;;10.10;8.55;;;;;;;;;;5034376;28;20227;-78
2022/04/30 02:54:27;;;;;;;13.33;9.40;;;;;;;;;;5035386;28;20226;-77
2022/04/30 02:56:54;;;;;;;12.25;9.30;;;;;;;;;;5037071;28;20663;-78
2022/04/30 03:02:03;;;;;;;11.47;9.40;;;;;;;;;;5046332;28;20456;-78
2022/04/30 03:04:31;;;;;;;12.33;9.33;;;;;;;;;;5053246;28;20441;-78
2022/04/30 03:06:58;;;;;;;9.80;8.70;;;;;;;;;;5053004;28;20887;-78
2022/04/30 03:09:25;;;;;;;12.18;9.50;;;;;;;;;;5053044;28;20949;-78
2022/04/30 03:11:52;;;;;;;15.00;10.15;;;;;;;;;;5053242;28;20222;-78
2022/04/30 03:14:19;;;;;;;13.68;10.38;;;;;;;;;;5038214;28;20637;-77
2022/04/30 03:22:10;;;;;;;14.07;8.88;;;;;;;;;;5037597;28;20210;-78
2022/04/30 03:24:37;;;;;;;10.70;9.45;;;;;;;;;;5048843;28;20191;-78
2022/04/30 03:27:05;;;;;;;12.70;9.73;;;;;;;;;;5052683;28;20296;-77
2022/04/30 03:29:32;;;;;;;10.45;9.27;;;;;;;;;;5052957;28;20199;-78
2022/04/30 03:31:59;;;;;;;12.05;10.07;;;;;;;;;;5052978;28;20576;-79
2022/04/30 03:34:28;;;;;;;11.95;9.88;;;;;;;;;;5052998;28;20195;-78
2022/04/30 03:37:17;;;;;;;14.70;10.57;;;;;;;;;;5035403;28;20534;-78
2022/04/30 03:39:44;;;;;;;13.38;10.10;;;;;;;;;;4975553;28;20205;-78
2022/04/30 03:42:11;;;;;;;12.85;9.90;;;;;;;;;;4976796;28;20697;-77
2022/04/30 03:44:38;;;;;;;9.85;8.52;;;;;;;;;;4971964;28;20201;-78
2022/04/30 03:47:05;;;;;;;17.63;10.75;;;;;;;;;;4970703;28;20256;-78
2022/04/30 03:49:34;;;;;;;17.42;9.10;;;;;;;;;;4971024;28;20285;-79
2022/04/30 03:52:03;;;;;;;15.90;10.18;;;;;;;;;;4971594;28;20268;-78
2022/04/30 03:54:31;;;;;;;13.93;10.00;;;;;;;;;;4970894;28;20201;-78
2022/04/30 03:56:59;;;;;;;11.10;9.90;;;;;;;;;;4981142;28;20244;-78
2022/04/30 03:59:26;;;;;;;16.88;11.05;;;;;;;;;;5034450;28;20203;-77
2022/04/30 04:01:53;;;;;;;12.77;10.20;;;;;;;;;;5036841;28;20219;-77
2022/04/30 04:04:20;;;;;;;13.43;10.23;;;;;;;;;;5037931;28;20198;-77
2022/04/30 04:06:47;;;;;;;12.13;9.82;;;;;;;;;;5032603;28;20196;-78
2022/04/30 04:09:16;;;;;;;10.93;9.73;;;;;;;;;;5031491;28;20199;-79
2022/04/30 04:11:43;;;;;;;15.40;9.82;;;;;;;;;;5032031;28;20227;-77
2022/04/30 04:19:32;;;;;;;11.82;9.95;;;;;;;;;;5033129;28;20660;-79
2022/04/30 04:22:00;;;;;;;11.95;9.05;;;;;;;;;;5033644;28;20220;-80
2022/04/30 04:27:09;;;;;;;11.80;10.10;;;;;;;;;;5036426;28;20191;-79
2022/04/30 04:29:36;;;;;;;12.60;9.88;;;;;;;;;;5051000;28;20213;-80
2022/04/30 04:32:04;;;;;;;10.73;9.55;;;;;;;;;;5050752;28;20226;-80
2022/04/30 04:34:31;;;;;;;17.40;10.70;;;;;;;;;;5051207;28;20206;-80
2022/04/30 04:36:58;;;;;;;14.20;11.05;;;;;;;;;;5051771;28;20194;-79
2022/04/30 04:39:25;;;;;;;11.45;10.25;;;;;;;;;;5047861;28;20219;-80
2022/04/30 04:41:53;;;;;;;14.98;9.93;;;;;;;;;;5036093;28;20218;-78
2022/04/30 04:44:21;;;;;;;13.85;10.55;;;;;;;;;;5037682;28;20199;-79
2022/04/30 04:46:48;;;;;;;11.98;9.98;;;;;;;;;;5047962;28;20248;-80
2022/04/30 04:49:16;;;;;;;14.70;11.07;;;;;;;;;;5051124;28;20194;-81
2022/04/30 04:51:43;;;;;;;13.35;10.45;;;;;;;;;;5051315;28;20215;-78
2022/04/30 04:54:10;;;;;;;11.20;10.10;;;;;;;;;;5052014;28;20190;-80
2022/04/30 04:56:38;;;;;;;12.00;9.68;;;;;;;;;;5051167;28;20194;-79
2022/04/30 04:59:08;;;;;;;10.82;9.43;;;;;;;;;;5033105;28;20223;-79
2022/04/30 05:01:36;;;;;;;10.68;9.00;;;;;;;;;;5033204;28;20225;-80
2022/04/30 05:04:03;;;;;;;13.57;9.30;;;;;;;;;;5036068;28;20199;-78
2022/04/30 05:06:31;;;;;;;11.35;9.68;;;;;;;;;;5037075;28;20194;-77
2022/04/30 05:08:58;;;;;;;11.43;9.77;;;;;;;;;;5047887;28;20216;-79
2022/04/30 05:11:25;;;;;;;15.07;9.23;;;;;;;;;;5050646;28;20461;-82
2022/04/30 05:13:52;;;;;;;11.15;9.68;;;;;;;;;;5051004;28;20564;-79
2022/04/30 05:16:21;;;;;;;11.30;8.07;;;;;;;;;;5051800;28;20195;-77
2022/04/30 05:18:48;;;;;;;11.18;8.70;;;;;;;;;;5050907;28;20258;-79
2022/04/30 05:21:15;;;;;;;12.57;9.98;;;;;;;;;;5033016;28;20221;-77
2022/04/30 05:23:42;;;;;;;12.88;9.52;;;;;;;;;;5035116;28;20199;-79
2022/04/30 05:26:09;;;;;;;9.93;8.93;;;;;;;;;;5039151;28;20650;-78
2022/04/30 05:28:36;;;;;;;9.80;8.80;;;;;;;;;;5040617;28;20426;-82
2022/04/30 05:31:06;;;;;;;10.13;9.00;;;;;;;;;;5035888;28;20982;-79
2022/04/30 05:33:35;;;;;;;11.83;9.20;;;;;;;;;;5034736;28;20449;-79
2022/04/30 05:36:02;;;;;;;9.90;8.90;;;;;;;;;;5034911;28;20504;-78
2022/04/30 05:38:30;;;;;;;12.67;8.73;;;;;;;;;;5033080;28;20998;-79
2022/04/30 05:40:57;;;;;;;11.10;8.63;;;;;;;;;;5028544;28;20477;-77
2022/04/30 05:43:24;;;;;;;10.03;7.63;;;;;;;;;;5035347;28;20808;-78
2022/04/30 05:45:51;;;;;;;10.50;7.83;;;;;;;;;;5038327;28;20461;-77
2022/04/30 05:48:18;;;;;;;14.40;9.33;;;;;;;;;;5032691;28;20466;-79
2022/04/30 05:50:47;;;;;;;8.57;7.20;;;;;;;;;;5032428;28;20469;-79
2022/04/30 05:53:14;;;;;;;9.00;7.83;;;;;;;;;;5032618;28;20462;-78
2022/04/30 05:55:41;;;;;;;9.97;7.20;;;;;;;;;;5034949;28;20437;-78
2022/04/30 05:58:08;;;;;;;9.47;6.73;;;;;;;;;;5033168;28;20543;-79
2022/04/30 06:00:35;;;;;;;9.80;8.37;;;;;;;;;;5034318;28;20473;-78
2022/04/30 06:03:02;;;;;;;8.93;7.40;;;;;;;;;;5016741;28;20457;-78
2022/04/30 06:05:30;;;;;;;8.70;7.70;;;;;;;;;;5024183;28;20448;-80
2022/04/30 06:07:59;;;;;;;10.37;7.83;;;;;;;;;;5038364;28;20465;-77
2022/04/30 06:10:26;;;;;;;7.83;6.83;;;;;;;;;;5046055;28;20524;-77
2022/04/30 06:12:53;;;;;;;8.70;7.80;;;;;;;;;;5031350;28;21175;-78
2022/04/30 06:15:20;;;;;;;6.63;6.00;;;;;;;;;;5034085;28;20438;-78
2022/04/30 06:17:47;;;;;;;9.40;7.03;;;;;;;;;;5032406;28;20465;-81
2022/04/30 06:20:15;;;;;;;9.80;6.60;;;;;;;;;;5034610;28;20464;-79
2022/04/30 06:22:42;;;;;;;8.10;6.20;;;;;;;;;;5031618;28;20485;-78
2022/04/30 06:25:11;;;;;;;8.20;6.83;;;;;;;;;;5036179;28;20450;-82
2022/04/30 06:27:39;;;;;;;8.63;6.53;;;;;;;;;;5017670;28;20545;-79
2022/04/30 06:30:07;;;;;;;8.97;6.90;;;;;;;;;;5039643;28;20429;-79
2022/04/30 06:32:34;;;;;;;12.37;7.30;;;;;;;;;;5022716;28;20477;-78
2022/04/30 06:35:02;;;;;;;10.57;7.00;;;;;;;;;;5051782;28;20445;-78
2022/04/30 06:37:30;;;;;;;9.50;6.77;;;;;;;;;;5015163;28;20485;-76
2022/04/30 06:39:57;;;;;;;7.20;6.50;;;;;;;;;;5033838;28;20489;-76
2022/04/30 06:42:25;;;;;;;8.20;7.40;;;;;;;;;;5032229;28;20473;-79
2022/04/30 06:44:54;;;;;;;8.07;6.17;;;;;;;;;;5033947;28;20963;-77
2022/04/30 06:47:21;;;;;;;7.60;6.43;;;;;;;;;;5032623;28;20453;-76
2022/04/30 06:49:50;;;;;;;11.00;6.33;;;;;;;;;;5037108;28;20935;-76
2022/04/30 06:52:18;;;;;;;9.87;6.70;;;;;;;;;;5036651;28;20473;-78
2022/04/30 06:57:27;;;;;;;11.70;7.07;;;;;;;;;;5028047;28;20434;-77
2022/04/30 06:59:56;;;;;;;9.03;6.50;;;;;;;;;;5034401;28;20530;-78
2022/04/30 07:02:24;;;;;;;8.70;5.87;;;;;;;;;;5026390;28;20571;-77
2022/04/30 07:04:52;;;;;;;9.13;6.33;;;;;;;;;;5014410;28;20928;-78
2022/04/30 07:07:19;;;;;;;8.03;5.77;;;;;;;;;;5026828;28;20546;-77
2022/04/30 07:09:47;;;;;;;8.73;5.70;;;;;;;;;;5033086;28;20462;-77
2022/04/30 07:12:14;;;;;;;5.80;4.77;;;;;;;;;;5033920;28;20477;-77
2022/04/30 07:14:48;;;;;;;5.43;5.00;;;;;;;;;;5036130;28;20436;-79
2022/04/30 07:17:16;;;;;;;6.20;5.40;;;;;;;;;;5037245;28;20453;-78
2022/04/30 07:19:43;;;;;;;10.27;5.77;;;;;;;;;;5034104;28;20846;-79
2022/04/30 07:22:10;;;;;;;6.80;6.10;;;;;;;;;;5031407;28;20566;-78
2022/04/30 07:24:38;;;;;;;9.03;6.07;;;;;;;;;;5032861;28;20448;-78
2022/04/30 07:27:06;;;;;;;8.87;6.50;;;;;;;;;;5031018;28;20455;-79
2022/04/30 07:29:34;;;;;;;6.73;5.20;;;;;;;;;;5032989;28;20450;-78
2022/04/30 07:32:02;;;;;;;8.77;5.50;;;;;;;;;;5014196;28;20845;-76
2022/04/30 07:34:30;;;;;;;9.17;5.90;;;;;;;;;;5035275;28;20457;-77
2022/04/30 07:36:57;;;;;;;6.77;5.60;;;;;;;;;;5021110;28;21071;-75
2022/04/30 07:39:24;;;;;;;10.43;6.30;;;;;;;;;;5031887;28;20481;-77
2022/04/30 07:41:53;;;;;;;6.50;5.10;;;;;;;;;;5029945;28;21002;-76
2022/04/30 07:44:20;;;;;;;6.27;5.07;;;;;;;;;;5031471;28;20965;-77
2022/04/30 07:46:47;;;;;;;7.63;6.57;;;;;;;;;;5031538;28;20462;-76
2022/04/30 07:49:16;;;;;;;7.53;6.37;;;;;;;;;;5032039;28;20461;-75
2022/04/30 07:51:53;;;;;;;6.00;5.40;;;;;;;;;;5033833;28;21334;-78
2022/04/30 07:54:20;;;;;;;6.80;6.10;;;;;;;;;;5032255;28;20524;-76
2022/04/30 07:56:48;;;;;;;6.70;5.00;;;;;;;;;;5034596;28;20516;-76
2022/04/30 07:59:15;;;;;;;8.23;5.63;;;;;;;;;;5017991;28;21027;-76
2022/04/30 08:01:42;;;;;;;7.53;5.60;;;;;;;;;;5031078;28;20843;-75
2022/04/30 08:04:09;;;;;;;6.83;5.40;;;;;;;;;;5029152;28;20452;-78
2022/04/30 08:06:38;;;;;;;5.90;5.07;;;;;;;;;;5032841;28;20466;-75
2022/04/30 08:09:05;;;;;;;5.57;4.53;;;;;;;;;;5031387;28;20956;-75
2022/04/30 08:11:32;;;;;;;6.53;4.70;;;;;;;;;;5032778;28;20986;-75
2022/04/30 08:13:59;;;;;;;6.20;4.73;;;;;;;;;;5031257;28;20969;-74
2022/04/30 08:16:27;;;;;;;7.73;5.17;;;;;;;;;;5033965;28;20452;-76
2022/04/30 08:18:55;;;;;;;5.50;5.00;;;;;;;;;;5032786;28;20479;-75
2022/04/30 08:21:22;;;;;;;5.90;5.30;;;;;;;;;;5037213;28;20458;-78
2022/04/30 08:23:50;;;;;;;6.53;5.40;;;;;;;;;;5034962;28;20794;-74
2022/04/30 08:26:18;;;;;;;8.10;5.43;;;;;;;;;;5031074;28;20449;-75
2022/04/30 08:28:45;;;;;;;4.90;4.40;;;;;;;;;;5030432;28;20507;-75
2022/04/30 08:31:12;;;;;;;5.30;4.80;;;;;;;;;;5031151;28;21006;-75
2022/04/30 08:33:39;;;;;;;7.13;4.30;;;;;;;;;;5030525;28;20475;-75
2022/04/30 08:36:06;;;;;;;4.97;4.47;;;;;;;;;;5030180;28;20461;-75
2022/04/30 08:38:34;;;;;;;5.13;4.10;;;;;;;;;;5032959;28;20456;-76
2022/04/30 08:41:02;;;;;;;6.03;5.03;;;;;;;;;;5037082;28;20484;-75
2022/04/30 08:43:30;;;;;;;5.47;4.57;;;;;;;;;;5025694;28;20470;-77
2022/04/30 08:45:57;;;;;;;6.80;4.30;;;;;;;;;;5011834;28;20848;-76
2022/04/30 08:48:26;;;;;;;7.27;4.80;;;;;;;;;;5019801;28;20458;-76
2022/04/30 08:50:53;;;;;;;7.53;4.87;;;;;;;;;;5031679;28;20462;-79
2022/04/30 08:53:20;;;;;;;5.33;4.10;;;;;;;;;;5031058;28;20457;-76
2022/04/30 08:55:47;;;;;;;4.57;3.40;;;;;;;;;;5032395;28;20428;-78
2022/04/30 08:58:16;;;;;;;4.33;3.90;;;;;;;;;;5031498;28;20461;-77
2022/04/30 09:00:44;;;;;;;5.30;3.57;;;;;;;;;;5033220;28;20525;-78
2022/04/30 09:03:14;;;;;;;4.23;3.80;;;;;;;;;;5034440;28;20459;-78
2022/04/30 09:05:42;;;;;;;7.17;4.20;;;;;;;;;;5019165;28;20454;-75
2022/04/30 09:08:09;;;;;;;6.40;4.37;;;;;;;;;;5035303;28;20439;-75
2022/04/30 09:10:37;;;;;;;5.77;3.90;;;;;;;;;;5025790;28;20573;-76
2022/04/30 09:13:05;;;;;;;7.73;4.67;;;;;;;;;;5030416;28;20462;-76
2022/04/30 09:15:34;;;;;;;6.53;4.43;;;;;;;;;;5030410;28;20561;-75
2022/04/30 09:18:02;;;;;;;7.33;4.40;;;;;;;;;;5029537;28;20468;-75
2022/04/30 09:20:31;;;;;;;7.20;3.63;;;;;;;;;;5032962;28;20844;-76
2022/04/30 09:22:58;;;;;;;5.17;4.20;;;;;;;;;;5030934;28;20516;-76
2022/04/30 09:25:25;;;;;;;4.10;3.67;;;;;;;;;;5034218;28;20488;-76
2022/04/30 09:27:54;;;;;;;4.40;4.00;;;;;;;;;;5035698;28;20587;-76
2022/04/30 09:30:24;;;;;;;3.93;3.53;;;;;;;;;;5025815;28;20454;-78
2022/04/30 09:33:00;;;;;;;4.87;4.00;;;;;;;;;;5027496;28;20486;-77
2022/04/30 09:38:09;;;;;;;6.43;3.53;;;;;;;;;;5012638;28;20492;-80
2022/04/30 09:40:36;;;;;;;4.60;3.90;;;;;;;;;;5012696;28;20500;-76
2022/04/30 09:43:05;;;;;;;5.40;3.80;;;;;;;;;;5035356;28;20437;-76
2022/04/30 09:45:34;;;;;;;8.87;3.83;;;;;;;;;;5036790;28;20576;-76
2022/04/30 09:53:56;;;;;;;4.83;4.03;;;;;;;;;;5028368;28;20553;-77
2022/04/30 09:56:18;;;;;;;4.60;3.50;;;;;;;;;;5029133;28;20454;-76
2022/04/30 09:58:46;;;;;;;3.70;3.40;;;;;;;;;;5030407;28;20548;-76
2022/04/30 10:01:14;;;;;;;5.00;3.30;;;;;;;;;;5031641;28;20481;-74
2022/04/30 10:03:43;;;;;;;5.37;4.10;;;;;;;;;;5031534;28;20454;-74
2022/04/30 10:06:10;;;;;;;3.47;3.17;;;;;;;;;;5034996;28;20939;-76
2022/04/30 10:08:39;;;;;;;4.40;3.40;;;;;;;;;;5035029;28;20441;-75
2022/04/30 10:11:14;;;;;;;5.00;3.33;;;;;;;;;;5029022;28;20489;-75
2022/04/30 10:13:47;;;;;;;3.33;2.97;;;;;;;;;;5014198;28;20447;-76
2022/04/30 10:16:19;;;;;;;5.50;3.60;;;;;;;;;;5024074;28;20448;-76
2022/04/30 10:18:57;;;;;;;3.60;2.80;;;;;;;;;;5034573;28;20438;-76
2022/04/30 10:21:24;;;;;;;4.77;3.30;;;;;;;;;;5034337;28;20473;-75
2022/04/30 10:24:01;;;;;;;5.30;3.03;;;;;;;;;;5035949;28;21049;-75
2022/04/30 10:26:28;;;;;;;3.33;3.00;;;;;;;;;;5035860;28;20443;-75
2022/04/30 10:28:58;;;;;;;3.40;3.10;;;;;;;;;;5039296;28;20790;-75
2022/04/30 10:31:25;;;;;;;3.73;3.43;;;;;;;;;;5039811;28;20474;-75
2022/04/30 10:33:54;;;;;;;4.40;3.20;;;;;;;;;;5052369;28;20898;-75
2022/04/30 10:36:22;;;;;;;5.83;3.30;;;;;;;;;;5053406;28;20441;-75
2022/04/30 10:38:59;;;;;;;4.53;3.20;;;;;;;;;;5035968;28;20441;-76
2022/04/30 10:41:27;;;;;;;4.70;3.57;;;;;;;;;;5036854;28;20833;-75
2022/04/30 10:44:02;;;;;;;7.77;4.10;;;;;;;;;;5032182;28;20458;-75
2022/04/30 10:46:37;;;;;;;4.43;2.80;;;;;;;;;;5035714;28;20479;-75
2022/04/30 10:49:06;;;;;;;3.60;2.80;;;;;;;;;;5035765;28;20440;-75
2022/04/30 10:51:37;;;;;;;5.30;3.20;;;;;;;;;;5038488;28;20457;-76
2022/04/30 10:54:08;;;;;;;3.37;3.07;;;;;;;;;;5039709;28;20503;-76
2022/04/30 10:56:35;;;;;;;4.80;3.53;;;;;;;;;;5033048;28;20442;-75
2022/04/30 10:59:02;;;;;;;3.90;2.67;;;;;;;;;;5033102;28;20537;-75
2022/04/30 11:01:30;;;;;;;4.90;3.37;;;;;;;;;;5033540;28;20963;-76
2022/04/30 11:03:57;;;;;;;4.90;3.60;;;;;;;;;;5034065;28;20453;-75
2022/04/30 11:06:26;;;;;;;4.33;3.30;;;;;;;;;;5032861;28;20947;-75
2022/04/30 11:08:57;;;;;;;5.67;3.80;;;;;;;;;;5017960;28;20449;-75
2022/04/30 11:11:24;;;;;;;9.63;4.10;;;;;;;;;;5035219;28;20466;-76
2022/04/30 11:13:55;;;;;;;4.40;3.53;;;;;;;;;;5037625;28;20435;-76
2022/04/30 11:16:29;;;;;;;4.87;3.90;;;;;;;;;;5039215;28;20805;-76
2022/04/30 11:19:00;;;;;;;3.57;3.27;;;;;;;;;;5033992;28;20438;-76
2022/04/30 11:21:32;;;;;;;3.83;3.40;;;;;;;;;;5032067;28;20501;-75
2022/04/30 11:23:59;;;;;;;5.13;3.40;;;;;;;;;;5015442;28;20439;-76
2022/04/30 11:26:27;;;;;;;3.20;2.90;;;;;;;;;;5033875;28;20437;-76
2022/04/30 11:28:54;;;;;;;5.43;3.40;;;;;;;;;;5032280;28;20446;-78
2022/04/30 11:31:21;;;;;;;4.40;3.60;;;;;;;;;;5034732;28;20792;-75
2022/04/30 11:33:49;;;;;;;3.53;3.23;;;;;;;;;;5017613;28;20409;-75
2022/04/30 11:36:17;;;;;;;3.50;3.13;;;;;;;;;;5019733;28;20595;-75
2022/04/30 11:38:52;;;;;;;4.90;3.73;;;;;;;;;;5038784;28;20438;-74
2022/04/30 11:41:21;;;;;;;5.43;3.57;;;;;;;;;;5033753;28;21263;-75
2022/04/30 11:43:58;;;;;;;3.73;3.30;;;;;;;;;;5032519;28;20418;-72
2022/04/30 11:46:25;;;;;;;4.67;4.17;;;;;;;;;;5032655;28;20493;-75
2022/04/30 11:48:53;;;;;;;8.60;3.80;;;;;;;;;;5032957;28;20892;-75
2022/04/30 11:51:21;;;;;;;4.67;3.93;;;;;;;;;;5032327;28;20439;-76
2022/04/30 11:53:48;;;;;;;6.17;4.10;;;;;;;;;;5033692;28;20921;-75
2022/04/30 11:56:17;;;;;;;5.43;3.50;;;;;;;;;;5034360;28;20436;-75
2022/04/30 11:58:44;;;;;;;4.67;3.70;;;;;;;;;;5035955;28;20435;-75
2022/04/30 12:01:26;;;;;;;5.30;3.87;;;;;;;;;;5037704;28;20593;-74
2022/04/30 12:03:55;;;;;;;4.83;3.50;;;;;;;;;;5018826;28;20524;-74
2022/04/30 12:06:22;;;;;;;4.20;3.80;;;;;;;;;;5031966;28;20452;-74
2022/04/30 12:08:49;;;;;;;9.30;3.47;;;;;;;;;;5031980;28;20427;-74
2022/04/30 12:11:18;;;;;;;3.33;3.03;;;;;;;;;;5032162;28;20440;-74
2022/04/30 12:13:56;;;;;;;4.87;4.20;;;;;;;;;;5032695;28;20449;-73
2022/04/30 12:16:24;;;;;;;4.73;4.00;;;;;;;;;;5033434;28;20499;-74
2022/04/30 12:26:58;;;;;;;5.60;4.00;;;;;;;;;;5032079;28;20492;-75
2022/04/30 12:29:25;;;;;;;4.20;3.57;;;;;;;;;;5031142;28;20526;-75
2022/04/30 12:31:53;;;;;;;3.90;3.43;;;;;;;;;;5010621;28;20483;-75
2022/04/30 12:34:20;;;;;;;4.07;3.40;;;;;;;;;;5011793;28;20418;-76
2022/04/30 12:36:52;;;;;;;5.07;3.23;;;;;;;;;;5011899;28;20447;-75
2022/04/30 12:39:19;;;;;;;4.30;3.67;;;;;;;;;;5013328;28;20447;-74
2022/04/30 12:41:46;;;;;;;4.67;3.67;;;;;;;;;;5013733;28;20952;-74
2022/04/30 12:44:15;;;;;;;4.50;3.60;;;;;;;;;;5016184;28;20843;-74
2022/04/30 12:46:44;;;;;;;3.70;3.40;;;;;;;;;;5017564;28;20439;-75
2022/04/30 12:49:12;;;;;;;3.60;3.30;;;;;;;;;;5013598;28;20678;-75
2022/04/30 12:51:39;;;;;;;4.90;3.60;;;;;;;;;;5011422;28;20448;-76
2022/04/30 12:54:07;;;;;;;6.00;3.67;;;;;;;;;;5011378;28;20445;-75
2022/04/30 12:56:34;;;;;;;4.47;3.57;;;;;;;;;;5011929;28;20909;-75
2022/04/30 12:59:01;;;;;;;4.33;3.30;;;;;;;;;;5011953;28;20459;-74
2022/04/30 13:01:30;;;;;;;4.00;3.70;;;;;;;;;;5012522;28;20498;-75
2022/04/30 13:03:57;;;;;;;7.10;3.30;;;;;;;;;;5014182;28;20804;-75
2022/04/30 13:06:24;;;;;;;3.80;3.30;;;;;;;;;;5014906;28;20491;-74
2022/04/30 13:14:14;;;;;;;3.93;3.40;;;;;;;;;;5011092;28;20514;-76
2022/04/30 13:16:43;;;;;;;5.10;3.70;;;;;;;;;;5011466;28;20951;-76
2022/04/30 13:19:10;;;;;;;4.47;3.60;;;;;;;;;;5011854;28;20442;-78
2022/04/30 13:21:37;;;;;;;3.30;3.00;;;;;;;;;;5011648;28;20583;-76
2022/04/30 13:24:05;;;;;;;5.97;3.83;;;;;;;;;;5012581;28;20458;-76
2022/04/30 13:26:33;;;;;;;3.87;2.93;;;;;;;;;;5013725;28;20417;-77
2022/04/30 13:29:00;;;;;;;3.70;3.40;;;;;;;;;;5015121;28;20803;-77
2022/04/30 13:31:27;;;;;;;4.63;3.10;;;;;;;;;;5023745;28;20933;-76
2022/04/30 13:33:55;;;;;;;4.70;3.27;;;;;;;;;;5043808;28;20438;-76
2022/04/30 13:36:22;;;;;;;3.80;3.50;;;;;;;;;;5051166;28;20441;-78
2022/04/30 13:38:50;;;;;;;3.80;2.93;;;;;;;;;;5051179;28;20453;-75
2022/04/30 13:41:17;;;;;;;3.03;2.73;;;;;;;;;;5051046;28;20978;-75
2022/04/30 13:43:44;;;;;;;4.37;3.97;;;;;;;;;;5051817;28;20464;-75
2022/04/30 13:46:11;;;;;;;6.50;4.50;;;;;;;;;;5041560;28;20441;-75
2022/04/30 13:48:38;;;;;;;4.07;3.70;;;;;;;;;;5039733;28;20799;-75
2022/04/30 13:51:07;;;;;;;4.30;3.83;;;;;;;;;;5041190;28;20434;-74
2022/04/30 13:53:34;;;;;;;4.00;3.70;;;;;;;;;;5052597;28;20940;-76
2022/04/30 13:56:01;;;;;;;3.90;3.50;;;;;;;;;;5054433;28;20445;-75
2022/04/30 13:58:28;;;;;;;3.90;3.60;;;;;;;;;;5054459;28;20445;-75
2022/04/30 14:00:55;;;;;;;3.57;3.27;;;;;;;;;;5054836;28;20492;-75
2022/04/30 14:03:23;;;;;;;3.63;3.33;;;;;;;;;;5052713;28;20441;-75
2022/04/30 14:05:50;;;;;;;4.10;3.73;;;;;;;;;;5036395;28;20442;-76
2022/04/30 14:08:19;;;;;;;4.30;3.57;;;;;;;;;;5038668;28;20954;-75
2022/04/30 14:10:47;;;;;;;7.57;3.60;;;;;;;;;;5022606;28;20486;-75
2022/04/30 14:15:55;;;;;;;4.20;3.90;;;;;;;;;;5033069;28;20525;-75
2022/04/30 14:18:24;;;;;;;4.70;4.23;;;;;;;;;;5034223;28;20446;-75
2022/04/30 14:20:51;;;;;;;4.60;3.57;;;;;;;;;;5034589;28;20496;-75
2022/04/30 14:23:21;;;;;;;3.83;3.43;;;;;;;;;;5034018;28;20438;-75
2022/04/30 14:25:49;;;;;;;4.53;3.63;;;;;;;;;;5035731;28;20537;-75
2022/04/30 14:28:18;;;;;;;3.80;3.30;;;;;;;;;;5018877;28;20438;-75
2022/04/30 14:30:45;;;;;;;4.73;3.87;;;;;;;;;;5038246;28;20516;-76
2022/04/30 14:33:12;;;;;;;6.33;4.10;;;;;;;;;;5040079;28;20438;-74
2022/04/30 14:35:40;;;;;;;4.63;3.30;;;;;;;;;;5017543;28;20948;-75
2022/04/30 14:38:11;;;;;;;4.00;3.70;;;;;;;;;;5033551;28;20438;-75
2022/04/30 14:40:40;;;;;;;6.37;3.90;;;;;;;;;;5033497;28;20482;-75
2022/04/30 14:43:09;;;;;;;4.30;3.90;;;;;;;;;;5034308;28;20441;-75
2022/04/30 14:45:36;;;;;;;3.53;3.03;;;;;;;;;;5033619;28;20442;-75
2022/04/30 14:48:03;;;;;;;4.10;3.70;;;;;;;;;;5035154;28;20454;-75
2022/04/30 14:50:31;;;;;;;7.37;4.80;;;;;;;;;;5035626;28;20462;-75
2022/04/30 14:52:58;;;;;;;4.93;4.50;;;;;;;;;;5037998;28;20445;-75
2022/04/30 14:55:26;;;;;;;3.87;3.57;;;;;;;;;;5038151;28;20433;-75
2022/04/30 14:57:55;;;;;;;4.80;3.67;;;;;;;;;;5034609;28;20453;-74
2022/04/30 15:00:22;;;;;;;6.50;5.00;;;;;;;;;;5033112;28;20943;-75
2022/04/30 15:02:49;;;;;;;5.50;4.17;;;;;;;;;;5033414;28;20438;-75
2022/04/30 15:05:16;;;;;;;4.77;4.10;;;;;;;;;;5033607;28;20504;-77
2022/04/30 15:07:43;;;;;;;5.73;3.40;;;;;;;;;;5033293;28;20931;-76
2022/04/30 15:10:11;;;;;;;4.30;3.40;;;;;;;;;;5034430;28;20462;-76
2022/04/30 15:12:38;;;;;;;4.43;4.03;;;;;;;;;;5035318;28;20442;-75
2022/04/30 15:15:08;;;;;;;4.30;3.90;;;;;;;;;;5037300;28;20441;-75
2022/04/30 15:17:35;;;;;;;4.20;3.67;;;;;;;;;;5039126;28;20487;-76
2022/04/30 15:20:02;;;;;;;4.40;4.00;;;;;;;;;;5045958;28;20433;-76
2022/04/30 15:22:29;;;;;;;4.43;3.50;;;;;;;;;;5052609;28;20830;-76
2022/04/30 15:24:56;;;;;;;4.63;3.30;;;;;;;;;;5052763;28;20444;-76
2022/04/30 15:27:24;;;;;;;4.10;3.70;;;;;;;;;;5052909;28;20437;-77
2022/04/30 15:29:51;;;;;;;4.03;3.53;;;;;;;;;;5053201;28;20892;-77
2022/04/30 15:32:19;;;;;;;4.47;3.43;;;;;;;;;;5039122;28;20481;-78
2022/04/30 15:34:48;;;;;;;4.00;3.50;;;;;;;;;;5035447;28;20927;-78